Time;durP1;ratioP1;P1;durP2;ratioP2;P2;SDS_P1;SDS_P2;PMS_P1;PMS_P2;Temp;Humidity;BMP_temperature;BMP_pressure;BME280_temperature;BME280_humidity;BME280_pressure;Samples;Min_cycle;Max_cycle;Signal;HPM_P1;HPM_P2
2022/06/09 00:00:10;;;;;;;48.60;20.90;;;;;;;21.91;40.84;98980.63;25040;1315;3027432;-58
2022/06/09 00:02:42;;;;;;;47.30;20.70;;;;;;;21.90;41.14;98983.41;25017;1315;3029326;-58
2022/06/09 00:05:11;;;;;;;48.90;21.20;;;;;;;21.91;41.21;98984.98;25037;1315;3026742;-60
2022/06/09 00:07:40;;;;;;;45.60;21.70;;;;;;;21.90;41.27;98988.33;25086;1315;3026422;-58
2022/06/09 00:10:11;;;;;;;46.60;21.40;;;;;;;21.89;41.05;98983.98;25042;1315;3069846;-57
2022/06/09 00:12:43;;;;;;;45.30;20.70;;;;;;;21.85;41.23;98988.32;25027;1315;3050371;-57
2022/06/09 00:15:13;;;;;;;51.80;22.40;;;;;;;21.80;41.32;98991.77;25094;1315;3027349;-57
2022/06/09 00:17:42;;;;;;;51.60;22.10;;;;;;;21.77;41.27;98992.74;25080;1315;3070726;-59
2022/06/09 00:20:11;;;;;;;45.80;19.60;;;;;;;21.77;41.38;98991.02;25036;1315;3028522;-57
2022/06/09 00:22:41;;;;;;;46.40;21.20;;;;;;;21.76;41.73;98994.00;25051;1315;3053694;-59
2022/06/09 00:25:10;;;;;;;50.20;21.80;;;;;;;21.75;41.68;98999.63;25081;1315;3029146;-57
2022/06/09 00:27:40;;;;;;;49.40;22.60;;;;;;;21.75;41.43;98998.58;25131;1315;3055511;-59
2022/06/09 00:30:11;;;;;;;50.80;20.80;;;;;;;21.74;41.83;99001.20;25135;1316;3026687;-56
2022/06/09 00:32:41;;;;;;;47.20;21.50;;;;;;;21.73;41.96;98999.00;25087;1315;3026479;-57
2022/06/09 00:35:10;;;;;;;57.20;21.70;;;;;;;21.73;41.29;99002.38;25085;1315;3026569;-58
2022/06/09 00:37:39;;;;;;;53.70;22.90;;;;;;;21.74;41.45;99004.16;25154;1315;3053314;-58
2022/06/09 00:40:10;;;;;;;49.70;21.70;;;;;;;21.74;41.57;99002.63;25026;1315;3026610;-58
2022/06/09 00:42:39;;;;;;;55.00;23.10;;;;;;;21.73;41.46;99001.23;25095;1315;3026895;-56
2022/06/09 00:45:27;;;;;;;49.90;21.00;;;;;;;21.72;41.38;98999.27;25047;1315;3026550;-57
2022/06/09 00:48:02;;;;;;;54.20;22.00;;;;;;;21.67;41.31;98997.92;25083;1316;3071869;-58
2022/06/09 00:50:31;;;;;;;54.50;22.00;;;;;;;21.64;41.31;98996.61;25108;1315;3049916;-57
2022/06/09 00:53:02;;;;;;;46.10;21.10;;;;;;;21.64;41.34;98994.64;25102;1315;3026623;-58
2022/06/09 00:55:32;;;;;;;50.00;21.30;;;;;;;21.59;41.78;98994.80;25124;1315;3069969;-57
2022/06/09 00:58:09;;;;;;;50.20;21.60;;;;;;;21.56;41.42;99001.02;25044;1315;3026157;-58
2022/06/09 01:01:01;;;;;;;45.00;21.00;;;;;;;21.53;41.75;99000.34;25029;1315;3054173;-56
2022/06/09 01:03:33;;;;;;;49.90;19.70;;;;;;;21.47;42.00;98997.48;25105;1316;3053549;-56
2022/06/09 01:06:24;;;;;;;50.00;20.60;;;;;;;21.42;42.14;99002.98;25115;1315;3059245;-58
2022/06/09 01:09:06;;;;;;;43.30;20.30;;;;;;;21.38;42.29;98999.27;25013;1315;3053519;-58
2022/06/09 01:11:36;;;;;;;44.90;20.00;;;;;;;21.35;42.36;98993.79;25088;1315;3053491;-58
2022/06/09 01:14:05;;;;;;;48.90;20.70;;;;;;;21.33;42.50;98995.44;25024;1316;3026513;-58
2022/06/09 01:16:51;;;;;;;53.10;21.50;;;;;;;21.31;42.61;98995.32;25018;1315;3026563;-60
2022/06/09 01:19:49;;;;;;;50.10;20.40;;;;;;;21.30;42.63;98997.95;25098;1316;3051354;-59
2022/06/09 01:22:46;;;;;;;50.10;21.60;;;;;;;21.25;42.72;98993.43;25047;1315;3055106;-57
2022/06/09 01:25:37;;;;;;;47.30;22.10;;;;;;;21.24;42.84;98988.73;25043;1314;3052095;-59
2022/06/09 01:28:06;;;;;;;51.90;21.20;;;;;;;21.23;42.79;98987.42;25054;1315;3059229;-56
2022/06/09 01:30:55;;;;;;;51.20;22.10;;;;;;;21.23;42.76;98983.21;25063;1315;3026310;-59
2022/06/09 01:33:58;;;;;;;45.20;21.20;;;;;;;21.22;42.73;98982.46;25098;1315;3052953;-58
2022/06/09 01:36:33;;;;;;;49.30;21.90;;;;;;;21.20;42.73;98980.67;25065;1315;3051692;-56
2022/06/09 01:39:03;;;;;;;53.60;22.50;;;;;;;21.19;42.67;98984.04;25080;1315;3068613;-58
2022/06/09 01:41:33;;;;;;;56.10;22.10;;;;;;;21.18;42.62;98987.77;25073;1315;3026088;-58
2022/06/09 01:44:02;;;;;;;51.30;22.10;;;;;;;21.18;42.53;98987.69;25127;1315;3026972;-56
2022/06/09 01:46:33;;;;;;;56.50;23.00;;;;;;;21.17;42.56;98983.85;25061;1316;3027286;-58
2022/06/09 01:49:10;;;;;;;53.10;23.50;;;;;;;21.18;42.62;98983.68;24684;1314;3027334;-59
2022/06/09 01:51:42;;;;;;;48.90;21.70;;;;;;;21.21;42.41;98982.95;25028;1316;3049853;-57
2022/06/09 01:54:17;;;;;;;51.40;22.00;;;;;;;21.22;42.30;98980.46;25088;1315;3026195;-58
2022/06/09 01:57:01;;;;;;;54.00;22.40;;;;;;;21.23;42.60;98981.09;25028;1315;3050737;-57
2022/06/09 01:59:35;;;;;;;56.30;22.70;;;;;;;21.25;42.46;98984.95;25029;1316;3071575;-58
2022/06/09 02:02:12;;;;;;;57.00;21.80;;;;;;;21.26;42.74;98983.38;25006;1315;3049554;-58
2022/06/09 02:04:43;;;;;;;51.10;21.90;;;;;;;21.23;42.94;98980.86;25033;1315;3055103;-58
2022/06/09 02:07:16;;;;;;;56.80;21.70;;;;;;;21.18;43.30;98981.14;25020;1315;3051440;-59
2022/06/09 02:09:46;;;;;;;58.10;21.50;;;;;;;21.18;43.21;98983.98;25084;1315;3027470;-58
2022/06/09 02:12:16;;;;;;;53.00;22.10;;;;;;;21.19;43.14;98985.20;25090;1315;3026573;-56
2022/06/09 02:14:57;;;;;;;54.20;22.30;;;;;;;21.19;43.41;98985.85;25080;1315;3054456;-58
2022/06/09 02:17:26;;;;;;;55.40;20.40;;;;;;;21.19;43.55;98985.14;25057;1315;3026773;-57
2022/06/09 02:19:56;;;;;;;50.00;20.90;;;;;;;21.21;43.25;98988.48;25094;1315;3026463;-57
2022/06/09 02:22:25;;;;;;;52.10;20.50;;;;;;;21.22;43.49;98986.54;25029;1314;3054296;-58
2022/06/09 02:24:54;;;;;;;45.50;20.60;;;;;;;21.24;43.18;98981.77;25060;1315;3026814;-58
2022/06/09 02:27:22;;;;;;;46.70;21.30;;;;;;;21.26;43.71;98983.17;25031;1315;3054686;-57
2022/06/09 02:29:51;;;;;;;41.90;19.30;;;;;;;21.27;43.68;98983.27;25083;1315;3026505;-57
2022/06/09 02:32:20;;;;;;;48.30;20.60;;;;;;;21.29;43.60;98985.20;25039;1316;3048622;-57
2022/06/09 02:34:50;;;;;;;51.90;19.50;;;;;;;21.29;43.76;98984.84;25099;1315;3028357;-57
2022/06/09 02:37:19;;;;;;;46.00;18.40;;;;;;;21.29;43.75;98990.55;25020;1315;3026757;-57
2022/06/09 02:39:48;;;;;;;48.40;19.50;;;;;;;21.30;43.36;98991.14;25026;1315;3048271;-58
2022/06/09 02:42:18;;;;;;;45.30;19.70;;;;;;;21.32;43.77;98994.88;25120;1316;3026587;-58
2022/06/09 02:44:48;;;;;;;45.90;19.90;;;;;;;21.32;43.90;98999.55;25122;1315;3068961;-57
2022/06/09 02:47:17;;;;;;;42.80;18.80;;;;;;;21.29;44.15;98999.46;25050;1315;3026627;-59
2022/06/09 02:49:46;;;;;;;42.80;19.20;;;;;;;21.28;44.46;98998.14;25064;1316;3049785;-58
2022/06/09 02:52:15;;;;;;;43.00;18.60;;;;;;;21.27;44.61;99001.48;25092;1315;3026489;-59
2022/06/09 02:54:45;;;;;;;46.30;18.50;;;;;;;21.27;44.52;99006.05;25030;1315;3054689;-57
2022/06/09 02:57:14;;;;;;;40.50;17.70;;;;;;;21.25;45.61;99001.34;25032;1315;3026511;-58
2022/06/09 02:59:43;;;;;;;41.50;17.70;;;;;;;21.21;46.49;99004.25;25083;1315;3026583;-57
2022/06/09 03:02:13;;;;;;;43.00;17.80;;;;;;;21.17;47.38;99004.15;25104;1315;3052057;-57
2022/06/09 03:04:43;;;;;;;39.70;18.80;;;;;;;21.16;47.63;99003.75;25036;1315;3026384;-57
2022/06/09 03:07:12;;;;;;;44.60;17.30;;;;;;;21.15;47.48;99007.77;25078;1316;3048225;-56
2022/06/09 03:09:41;;;;;;;36.00;16.20;;;;;;;21.18;47.78;99011.59;25048;1315;3026634;-58
2022/06/09 03:12:12;;;;;;;37.00;16.00;;;;;;;21.22;48.29;99008.94;25105;1315;3057516;-57
2022/06/09 03:15:14;;;;;;;36.90;16.70;;;;;;;21.36;48.17;99009.16;31464;1318;3026412;-57
2022/06/09 03:17:47;;;;;;;46.40;19.90;;;;;;;21.65;47.01;99003.38;25061;1316;3054841;-56
2022/06/09 03:20:20;;;;;;;41.10;16.70;;;;;;;21.87;47.30;98998.36;24999;1316;3026520;-56
2022/06/09 03:22:50;;;;;;;34.40;17.10;;;;;;;21.77;47.42;98996.03;25065;1318;3027522;-57
2022/06/09 03:25:19;;;;;;;42.20;16.10;;;;;;;21.75;47.08;98995.84;24977;1318;3026443;-58
2022/06/09 03:27:49;;;;;;;35.50;15.30;;;;;;;21.78;46.66;98991.98;24795;1317;3330441;-57
2022/06/09 03:30:18;;;;;;;34.90;15.30;;;;;;;21.79;46.94;98991.80;25107;1313;3026614;-58
2022/06/09 03:32:48;;;;;;;38.80;16.60;;;;;;;21.83;47.20;98991.95;25106;1315;3052288;-58
2022/06/09 03:35:18;;;;;;;34.90;15.20;;;;;;;21.85;47.37;98994.52;25152;1315;3026487;-57
2022/06/09 03:37:47;;;;;;;39.90;15.50;;;;;;;21.91;47.16;98989.98;25110;1315;3026561;-58
2022/06/09 03:40:21;;;;;;;39.30;16.40;;;;;;;21.96;46.77;98989.17;25076;1315;3026608;-58
2022/06/09 03:42:51;;;;;;;37.70;16.60;;;;;;;22.02;46.53;98990.61;25054;1315;3054687;-58
2022/06/09 03:45:22;;;;;;;35.70;15.90;;;;;;;22.11;46.32;98990.10;25126;1315;3027525;-60
2022/06/09 03:47:51;;;;;;;39.80;16.20;;;;;;;22.19;46.32;98985.66;25097;1315;3026403;-57
2022/06/09 03:50:23;;;;;;;43.30;15.70;;;;;;;22.19;46.72;98989.37;25075;1315;3055359;-59
2022/06/09 03:52:53;;;;;;;33.90;16.40;;;;;;;22.18;48.32;98993.99;25087;1315;3027021;-57
2022/06/09 03:55:22;;;;;;;50.20;16.10;;;;;;;22.13;49.36;98994.16;25046;1315;3026841;-58
2022/06/09 03:57:51;;;;;;;41.10;14.80;;;;;;;22.13;49.88;98996.46;25101;1315;3026693;-56
2022/06/09 04:00:24;;;;;;;43.10;15.60;;;;;;;22.16;50.24;98991.13;25069;1315;3056725;-59
2022/06/09 04:02:54;;;;;;;35.20;16.30;;;;;;;22.23;49.82;98985.02;25067;1315;3026834;-58
2022/06/09 04:05:23;;;;;;;39.00;15.60;;;;;;;22.36;49.22;98986.95;25137;1315;3026352;-57
2022/06/09 04:07:56;;;;;;;35.90;16.50;;;;;;;22.45;48.73;98984.80;25134;1312;3058872;-57
2022/06/09 04:10:27;;;;;;;37.40;15.50;;;;;;;22.54;48.55;98984.27;25068;1312;3026514;-58
2022/06/09 04:12:57;;;;;;;34.30;15.80;;;;;;;22.64;48.56;98984.14;25084;1313;3026685;-57
2022/06/09 04:15:26;;;;;;;42.70;15.30;;;;;;;22.73;48.15;98986.13;25117;1312;3026366;-58
2022/06/09 04:17:55;;;;;;;37.90;15.50;;;;;;;22.80;48.18;98983.67;25053;1312;3026226;-58
2022/06/09 04:20:25;;;;;;;45.50;15.40;;;;;;;22.91;47.43;98980.94;25098;1312;3026368;-58
2022/06/09 04:22:54;;;;;;;43.20;16.30;;;;;;;23.00;46.86;98980.90;25048;1312;3027156;-58
2022/06/09 04:25:24;;;;;;;36.60;16.10;;;;;;;23.06;46.51;98981.14;25099;1312;3026807;-57
2022/06/09 04:27:53;;;;;;;40.50;16.40;;;;;;;23.08;46.38;98979.23;25094;1315;3026821;-58
2022/06/09 04:30:22;;;;;;;35.70;16.10;;;;;;;23.12;46.12;98978.64;25062;1312;3026554;-57
2022/06/09 04:32:53;;;;;;;43.10;16.30;;;;;;;23.15;46.27;98981.27;25079;1315;3053172;-57
2022/06/09 04:35:23;;;;;;;36.40;16.40;;;;;;;23.18;46.58;98980.30;25084;1312;3026612;-59
2022/06/09 04:38:01;;;;;;;41.30;16.30;;;;;;;23.20;47.26;98980.02;25035;1312;3026965;-58
2022/06/09 04:40:36;;;;;;;31.90;15.10;;;;;;;23.18;47.47;98975.19;25040;1313;3055834;-58
2022/06/09 04:43:09;;;;;;;43.80;15.50;;;;;;;23.16;47.45;98980.47;25062;1314;3052801;-55
2022/06/09 04:45:39;;;;;;;40.00;15.90;;;;;;;23.14;47.34;98983.70;25085;1312;3026441;-58
2022/06/09 04:48:09;;;;;;;29.80;15.70;;;;;;;23.16;47.05;98988.30;25134;1312;3027158;-58
2022/06/09 04:50:40;;;;;;;44.30;16.50;;;;;;;23.15;46.93;98989.28;25135;1312;3026526;-58
2022/06/09 04:53:09;;;;;;;32.70;15.10;;;;;;;23.14;46.98;98991.54;25051;1312;3028782;-58
2022/06/09 04:55:39;;;;;;;31.80;14.80;;;;;;;23.14;46.89;98994.05;25069;1312;3049840;-59
2022/06/09 04:58:08;;;;;;;34.60;15.50;;;;;;;23.10;47.24;98988.48;25080;1312;3026678;-59
2022/06/09 05:00:37;;;;;;;34.10;15.60;;;;;;;23.11;46.82;98989.02;25173;1312;3026432;-57
2022/06/09 05:03:11;;;;;;;36.40;15.20;;;;;;;23.15;46.06;98992.91;25050;1312;3048934;-58
2022/06/09 05:05:45;;;;;;;37.10;15.50;;;;;;;23.20;46.74;98996.97;25060;1315;3055314;-59
2022/06/09 05:08:14;;;;;;;50.00;15.40;;;;;;;23.21;47.64;98996.66;25120;1312;3026076;-57
2022/06/09 05:10:46;;;;;;;36.50;14.50;;;;;;;23.24;47.41;99001.37;25073;1312;3027228;-59
2022/06/09 05:13:18;;;;;;;33.70;15.10;;;;;;;23.27;47.51;99003.77;25088;1312;3027259;-59
2022/06/09 05:15:51;;;;;;;31.90;13.60;;;;;;;23.31;47.15;99001.73;25093;1312;3026632;-59
2022/06/09 05:18:22;;;;;;;;;;;;;;;23.38;46.62;99003.54;25094;1312;3056919;-59
2022/06/09 05:20:51;;;;;;;31.20;14.10;;;;;;;23.36;47.35;99003.03;25036;1312;3026770;-58
2022/06/09 05:23:20;;;;;;;37.10;14.60;;;;;;;23.39;47.23;99002.86;25119;1315;3026936;-58
2022/06/09 05:25:51;;;;;;;41.70;15.30;;;;;;;23.39;47.69;99010.33;25206;1314;3056506;-58
2022/06/09 05:28:20;;;;;;;38.40;16.10;;;;;;;23.37;47.71;99015.98;25070;1315;3026189;-59
2022/06/09 05:30:51;;;;;;;37.30;15.20;;;;;;;23.31;46.65;99014.36;25080;1313;3027471;-58
2022/06/09 05:33:22;;;;;;;41.10;16.00;;;;;;;23.36;46.28;99016.14;25108;1313;3026461;-58
2022/06/09 05:35:51;;;;;;;36.20;16.70;;;;;;;23.37;45.85;99017.59;25070;1313;3026913;-59
2022/06/09 05:46:48;;;;;;;32.10;14.30;;;;;;;23.58;44.07;99020.41;25123;1315;3051025;-58
2022/06/09 05:49:17;;;;;;;33.00;14.70;;;;;;;23.67;43.48;99014.48;25058;1315;3028473;-58
2022/06/09 05:51:49;;;;;;;37.50;15.70;;;;;;;23.77;42.90;99013.28;25094;1315;3069856;-59
2022/06/09 05:54:19;;;;;;;34.40;15.40;;;;;;;23.85;42.64;99014.98;25108;1315;3026613;-61
2022/06/09 05:56:48;;;;;;;35.50;15.30;;;;;;;23.87;42.64;99017.67;25125;1315;3026000;-61
2022/06/09 05:59:17;;;;;;;36.50;15.40;;;;;;;23.97;42.60;99016.33;25078;1315;3026089;-57
2022/06/09 06:01:46;;;;;;;35.90;16.20;;;;;;;24.06;42.21;99020.13;25091;1315;3047806;-58
2022/06/09 06:04:15;;;;;;;35.30;15.30;;;;;;;24.11;42.53;99018.36;25092;1315;3026569;-58
2022/06/09 06:06:45;;;;;;;37.50;16.50;;;;;;;24.15;43.56;99017.85;25064;1313;3026740;-58
2022/06/09 06:09:17;;;;;;;41.40;17.20;;;;;;;24.26;43.17;99021.05;25085;1313;3051158;-57
2022/06/09 06:11:47;;;;;;;39.90;19.30;;;;;;;24.31;43.18;99021.27;25106;1313;3054885;-58
2022/06/09 06:14:17;;;;;;;44.60;16.90;;;;;;;24.37;43.25;99021.27;25032;1315;3026722;-56
2022/06/09 06:16:46;;;;;;;40.70;16.50;;;;;;;24.41;43.16;99021.88;25129;1313;3049339;-57
2022/06/09 06:19:17;;;;;;;43.60;16.10;;;;;;;24.52;43.16;99018.41;25062;1315;3029504;-59
2022/06/09 06:21:47;;;;;;;41.80;16.80;;;;;;;24.60;43.54;99017.56;25055;1313;3071070;-57
2022/06/09 06:24:17;;;;;;;41.30;17.30;;;;;;;24.66;43.92;99020.13;25118;1313;3028778;-58
2022/06/09 06:26:46;;;;;;;39.40;16.60;;;;;;;24.67;44.44;99014.47;25071;1312;3049723;-57
2022/06/09 06:29:18;;;;;;;42.20;16.60;;;;;;;24.74;44.25;99012.66;25124;1314;3026926;-58
2022/06/09 06:31:47;;;;;;;41.60;15.20;;;;;;;24.84;43.60;99018.35;25047;1315;3053624;-58
2022/06/09 06:34:17;;;;;;;41.70;16.10;;;;;;;24.89;43.86;99015.38;25055;1313;3026962;-58
2022/06/09 06:36:46;;;;;;;39.10;16.10;;;;;;;24.98;43.96;99015.83;25091;1315;3026344;-57
2022/06/09 06:39:15;;;;;;;34.90;16.30;;;;;;;25.06;43.94;99020.21;25076;1315;3054587;-57
2022/06/09 06:41:44;;;;;;;33.30;16.40;;;;;;;25.12;43.85;99021.40;25102;1315;3026351;-59
2022/06/09 06:44:13;;;;;;;40.80;16.80;;;;;;;25.15;43.70;99023.90;25074;1315;3051368;-57
2022/06/09 06:46:42;;;;;;;39.30;16.70;;;;;;;25.21;43.59;99022.73;25083;1313;3027023;-58
2022/06/09 06:49:15;;;;;;;40.90;16.50;;;;;;;25.28;43.37;99020.02;25021;1314;3058729;-57
2022/06/09 06:51:48;;;;;;;44.70;16.60;;;;;;;25.33;43.37;99023.39;25070;1315;3027282;-57
2022/06/09 06:54:17;;;;;;;50.00;17.70;;;;;;;25.36;43.40;99021.92;25055;1315;3026113;-57
2022/06/09 06:56:46;;;;;;;46.60;16.70;;;;;;;25.35;43.17;99028.86;25054;1314;3026413;-57
2022/06/09 06:59:15;;;;;;;33.60;16.00;;;;;;;25.47;42.98;99029.17;25112;1315;3049838;-57
2022/06/09 07:01:45;;;;;;;38.30;15.90;;;;;;;25.52;43.00;99022.44;25044;1315;3026450;-58
2022/06/09 07:04:15;;;;;;;36.30;15.80;;;;;;;25.58;42.69;99021.77;25092;1313;3027621;-60
2022/06/09 07:06:44;;;;;;;45.00;16.80;;;;;;;25.66;42.44;99019.19;25090;1315;3050750;-57
2022/06/09 07:09:13;;;;;;;33.20;14.80;;;;;;;25.74;42.54;99018.00;25045;1313;3026467;-57
2022/06/09 07:11:43;;;;;;;36.80;16.40;;;;;;;25.82;42.61;99018.82;25121;1315;3057064;-56
2022/06/09 07:14:12;;;;;;;43.50;16.50;;;;;;;25.86;42.91;99021.10;25068;1315;3027468;-56
2022/06/09 07:16:41;;;;;;;34.60;15.40;;;;;;;25.90;42.38;99020.80;25104;1313;3026949;-57
2022/06/09 07:19:10;;;;;;;36.60;15.60;;;;;;;25.91;42.41;99018.90;25095;1313;3058239;-59
2022/06/09 07:21:40;;;;;;;38.00;17.60;;;;;;;25.97;42.57;99019.30;25157;1315;3027845;-61
2022/06/09 07:24:10;;;;;;;41.10;15.90;;;;;;;26.02;42.54;99020.71;25207;1315;3026557;-59
2022/06/09 07:26:39;;;;;;;40.30;16.50;;;;;;;26.10;42.30;99023.75;25083;1315;3026616;-58
2022/06/09 07:29:08;;;;;;;52.40;17.30;;;;;;;26.10;42.78;99022.33;25139;1314;3052257;-58
2022/06/09 07:31:37;;;;;;;33.80;16.20;;;;;;;26.23;41.80;99019.20;25342;1313;3028292;-60
2022/06/09 07:34:07;;;;;;;40.20;16.60;;;;;;;26.39;40.96;99015.73;25085;1315;3057988;-58
2022/06/09 07:36:36;;;;;;;42.80;16.90;;;;;;;26.48;40.93;99016.96;25057;1315;3026530;-58
2022/06/09 07:39:05;;;;;;;44.80;16.00;;;;;;;26.54;41.31;99020.69;25105;1313;3028828;-59
2022/06/09 07:41:35;;;;;;;33.00;16.00;;;;;;;26.67;41.15;99019.77;25054;1315;3056503;-57
2022/06/09 07:44:05;;;;;;;38.40;15.90;;;;;;;26.78;40.87;99018.67;25085;1313;3027304;-61
2022/06/09 07:46:34;;;;;;;38.10;15.40;;;;;;;26.86;40.73;99017.74;25125;1313;3053563;-62
2022/06/09 07:49:03;;;;;;;38.40;15.90;;;;;;;26.90;40.72;99021.35;25082;1315;3027665;-58
2022/06/09 07:51:32;;;;;;;33.70;16.30;;;;;;;26.98;40.18;99022.41;25063;1313;3054136;-59
2022/06/09 07:54:01;;;;;;;39.30;14.80;;;;;;;27.10;39.96;99019.81;25154;1313;3026709;-58
2022/06/09 07:56:32;;;;;;;36.70;16.10;;;;;;;27.17;39.49;99021.89;25167;1315;3048288;-58
2022/06/09 07:59:02;;;;;;;36.50;16.20;;;;;;;27.24;39.58;99019.34;25039;1315;3026735;-59
2022/06/09 08:01:32;;;;;;;39.80;16.70;;;;;;;27.34;39.49;99019.89;25088;1315;3026877;-59
2022/06/09 08:04:02;;;;;;;37.90;16.50;;;;;;;27.42;38.72;99019.35;25135;1315;3029160;-58
2022/06/09 08:06:31;;;;;;;30.20;15.10;;;;;;;27.51;38.03;99019.55;25053;1313;3027341;-56
2022/06/09 08:09:01;;;;;;;35.70;14.30;;;;;;;27.61;38.04;99020.71;25037;1313;3027131;-59
2022/06/09 08:11:35;;;;;;;34.30;14.60;;;;;;;27.66;38.03;99023.52;25113;1313;3026425;-58
2022/06/09 08:14:05;;;;;;;34.90;15.10;;;;;;;27.72;37.70;99023.86;25075;1313;3067203;-58
2022/06/09 08:16:35;;;;;;;31.80;14.60;;;;;;;27.84;37.78;99026.12;25039;1317;3026692;-58
2022/06/09 08:19:05;;;;;;;35.10;13.90;;;;;;;27.94;36.87;99023.09;25078;1315;3026351;-59
2022/06/09 08:21:34;;;;;;;34.70;14.00;;;;;;;28.04;36.04;99021.91;25138;1313;3026840;-57
2022/06/09 08:24:03;;;;;;;33.90;14.10;;;;;;;28.14;35.96;99017.60;25023;1315;3027428;-58
2022/06/09 08:26:33;;;;;;;28.20;14.30;;;;;;;28.21;35.82;99013.02;25069;1315;3051184;-58
2022/06/09 08:29:02;;;;;;;30.00;13.60;;;;;;;28.33;35.37;99016.71;25191;1315;3029867;-58
2022/06/09 08:31:32;;;;;;;37.10;13.40;;;;;;;28.42;34.90;99011.29;25155;1313;3026943;-57
2022/06/09 08:34:01;;;;;;;31.00;12.40;;;;;;;28.45;35.30;99008.98;25113;1315;3026632;-58
2022/06/09 08:36:31;;;;;;;25.10;12.20;;;;;;;28.63;34.48;99009.45;25083;1315;3054655;-59
2022/06/09 08:39:00;;;;;;;26.80;12.60;;;;;;;28.73;33.41;99004.63;25095;1315;3027061;-58
2022/06/09 08:41:58;;;;;;;26.70;12.00;;;;;;;28.64;34.16;99003.92;25100;1314;3054225;-60
2022/06/09 08:44:29;;;;;;;22.70;11.60;;;;;;;28.47;34.74;99008.58;25103;1315;3053511;-59
2022/06/09 08:47:07;;;;;;;38.10;13.50;;;;;;;28.30;34.62;99010.30;25195;1313;3026262;-58
2022/06/09 08:50:06;;;;;;;27.80;12.00;;;;;;;28.25;34.35;99010.88;25100;1315;3052571;-58
2022/06/09 08:53:19;;;;;;;27.70;12.00;;;;;;;28.40;33.96;99007.59;25113;1314;3056408;-60
2022/06/09 08:55:51;;;;;;;32.20;12.30;;;;;;;28.49;33.12;99008.84;25025;1320;3051067;-60
2022/06/09 08:58:28;;;;;;;30.30;12.20;;;;;;;28.45;33.01;99009.05;25149;1317;3027329;-59
2022/06/09 09:01:22;;;;;;;25.30;12.00;;;;;;;28.52;32.72;99006.96;25045;1313;3050837;-59
2022/06/09 09:03:53;;;;;;;;;;;;;;;28.91;32.35;99007.15;25092;1315;3052410;-59
2022/06/09 09:06:28;;;;;;;33.40;11.90;;;;;;;29.09;31.42;99007.03;25109;1315;3026056;-57
2022/06/09 09:09:15;;;;;;;34.10;12.60;;;;;;;29.03;31.16;99005.27;25230;1315;3058016;-59
2022/06/09 09:11:48;;;;;;;30.60;12.00;;;;;;;28.92;31.15;98998.52;25159;1313;3050094;-59
2022/06/09 09:15:08;;;;;;;26.10;11.30;;;;;;;28.83;31.74;98999.16;25148;1314;3053695;-60
2022/06/09 09:18:05;;;;;;;26.30;11.30;;;;;;;28.90;31.61;98995.30;25173;1315;3051420;-57
2022/06/09 09:20:37;;;;;;;25.50;11.40;;;;;;;29.12;31.13;98992.78;25092;1313;3071128;-58
2022/06/09 09:23:16;;;;;;;25.10;9.70;;;;;;;29.33;30.32;98988.52;25102;1315;3026646;-59
2022/06/09 09:26:00;;;;;;;30.10;10.20;;;;;;;29.46;29.64;98988.48;25162;1315;3054660;-59
2022/06/09 09:28:30;;;;;;;;;;;;;;;29.65;29.58;98985.19;25257;1315;3053679;-58
2022/06/09 09:31:22;;;;;;;26.70;9.70;;;;;;;29.81;29.33;98983.42;25186;1315;3026461;-60
2022/06/09 09:33:51;;;;;;;19.10;9.80;;;;;;;29.92;29.24;98984.94;25128;1315;3049332;-57
2022/06/09 09:36:27;;;;;;;25.80;10.20;;;;;;;29.97;29.19;98980.67;25255;1313;3026588;-57
2022/06/09 09:39:01;;;;;;;22.20;9.70;;;;;;;30.04;29.07;98975.44;25283;1315;3057679;-56
2022/06/09 09:41:33;;;;;;;19.90;9.30;;;;;;;30.12;28.59;98972.48;25104;1315;3026759;-59
2022/06/09 09:44:20;;;;;;;24.40;9.30;;;;;;;30.13;28.45;98971.00;25117;1313;3027286;-59
2022/06/09 09:46:54;;;;;;;25.70;10.20;;;;;;;30.32;28.29;98974.15;25230;1315;3051428;-58
2022/06/09 09:49:25;;;;;;;24.20;10.50;;;;;;;30.51;27.56;98972.86;25195;1316;3068878;-55
2022/06/09 09:51:54;;;;;;;29.00;10.60;;;;;;;30.67;27.45;98972.71;25085;1313;3026863;-62
2022/06/09 09:54:26;;;;;;;24.20;10.10;;;;;;;30.78;27.09;98968.98;25080;1315;3026600;-57
2022/06/09 09:57:22;;;;;;;23.30;9.90;;;;;;;30.77;27.15;98974.67;25090;1313;3071177;-59
2022/06/09 09:59:55;;;;;;;23.40;9.30;;;;;;;30.66;27.38;98975.96;25061;1315;3049820;-58
2022/06/09 10:08:41;;;;;;;19.80;6.90;;;;;;;29.98;29.28;98974.47;25095;1315;3056927;-57
2022/06/09 10:14:39;;;;;;;20.10;6.10;;;;;;;29.92;28.96;98975.20;25257;1314;3053117;-60
2022/06/09 10:17:48;;;;;;;19.20;6.70;;;;;;;30.23;28.48;98969.27;25178;1315;3051333;-58
2022/06/09 10:20:27;;;;;;;17.60;6.90;;;;;;;30.63;28.05;98967.33;25237;1315;3071578;-58
2022/06/09 10:23:23;;;;;;;17.20;6.40;;;;;;;30.84;27.40;98965.27;25167;1313;3049196;-60
2022/06/09 10:26:25;;;;;;;21.80;6.40;;;;;;;30.68;27.55;98958.81;25055;1318;3053237;-60
2022/06/09 10:29:03;;;;;;;18.80;6.40;;;;;;;30.43;28.22;98960.29;25110;1315;3055529;-60
2022/06/09 10:31:35;;;;;;;17.10;6.10;;;;;;;30.30;28.38;98958.51;25139;1314;3056390;-58
2022/06/09 10:34:10;;;;;;;20.70;6.40;;;;;;;30.18;29.04;98955.63;25251;1313;3027305;-57
2022/06/09 10:37:01;;;;;;;15.90;6.30;;;;;;;30.29;28.66;98952.52;25111;1313;3052135;-58
2022/06/09 10:39:47;;;;;;;20.80;5.50;;;;;;;30.35;28.39;98950.21;25173;1315;3052689;-58
2022/06/09 10:42:19;;;;;;;12.60;6.10;;;;;;;30.49;28.23;98947.21;25056;1315;3069213;-59
2022/06/09 10:44:53;;;;;;;15.80;5.30;;;;;;;30.66;27.64;98946.30;25088;1313;3028175;-59
2022/06/09 10:56:23;;;;;;;15.00;5.80;;;;;;;31.26;25.76;98934.55;25096;1315;3051445;-59
2022/06/09 10:59:04;;;;;;;14.00;5.60;;;;;;;31.36;26.23;98935.04;25050;1315;3053970;-60
2022/06/09 11:01:33;;;;;;;15.40;5.00;;;;;;;31.41;26.22;98937.27;25070;1315;3056292;-59
2022/06/09 11:04:05;;;;;;;11.30;5.10;;;;;;;31.56;25.65;98932.26;25046;1315;3026603;-58
2022/06/09 11:07:08;;;;;;;9.50;4.80;;;;;;;31.64;25.52;98934.19;25176;1315;3026573;-58
2022/06/09 11:10:06;;;;;;;11.50;4.70;;;;;;;31.63;25.67;98932.96;25123;1318;3052534;-58
2022/06/09 11:12:48;;;;;;;18.00;4.60;;;;;;;31.34;25.67;98936.37;25132;1313;3052356;-59
2022/06/09 11:15:25;;;;;;;12.00;4.60;;;;;;;31.01;26.36;98934.08;25082;1315;3059630;-60
2022/06/09 11:17:58;;;;;;;13.90;4.10;;;;;;;30.83;26.72;98934.84;25178;1315;3050337;-56
2022/06/09 11:20:54;;;;;;;11.60;4.90;;;;;;;30.70;27.00;98935.39;25097;1315;3028890;-58
2022/06/09 11:23:36;;;;;;;13.00;4.30;;;;;;;30.92;26.65;98939.85;25187;1315;3051954;-57
2022/06/09 11:26:22;;;;;;;16.30;4.40;;;;;;;31.31;26.12;98936.90;25148;1315;3070991;-58
2022/06/09 11:29:33;;;;;;;14.50;4.60;;;;;;;31.60;25.62;98930.62;25136;1315;3049341;-59
2022/06/09 11:32:10;;;;;;;16.50;4.10;;;;;;;31.96;25.39;98931.46;25160;1315;3053027;-60
2022/06/09 11:34:54;;;;;;;14.70;4.60;;;;;;;32.23;24.48;98930.07;25083;1318;3054653;-60
2022/06/09 11:37:46;;;;;;;7.50;3.80;;;;;;;32.25;24.49;98931.44;25226;1315;3056325;-58
2022/06/09 11:40:58;;;;;;;12.70;3.60;;;;;;;32.50;23.75;98925.08;25079;1318;3053764;-58
2022/06/09 11:43:37;;;;;;;8.60;3.30;;;;;;;32.85;23.05;98923.61;25128;1314;3054198;-59
2022/06/09 11:46:32;;;;;;;14.60;3.80;;;;;;;32.76;22.99;98923.05;25140;1315;3051648;-58
2022/06/09 11:49:06;;;;;;;15.70;3.50;;;;;;;32.44;23.71;98928.79;24989;1315;3071851;-62
2022/06/09 11:51:35;;;;;;;10.70;3.40;;;;;;;32.16;23.69;98926.69;25121;1315;3026702;-60
2022/06/09 11:54:06;;;;;;;19.60;4.30;;;;;;;31.97;24.31;98923.88;25130;1315;3026168;-60
2022/06/09 11:56:43;;;;;;;10.80;3.30;;;;;;;32.09;23.99;98923.70;25142;1314;3028439;-58
2022/06/09 11:59:24;;;;;;;12.50;3.90;;;;;;;32.31;24.02;98925.45;25055;1315;3059133;-58
2022/06/09 12:02:41;;;;;;;10.90;4.00;;;;;;;32.54;23.87;98922.69;24983;1315;3052519;-59